Time;durP1;ratioP1;P1;durP2;ratioP2;P2;SDS_P1;SDS_P2;PMS_P1;PMS_P2;Temp;Humidity;BMP_temperature;BMP_pressure;BME280_temperature;BME280_humidity;BME280_pressure;Samples;Min_cycle;Max_cycle;Signal;HPM_P1;HPM_P2
2023/03/27 00:00:49;;;;;;;;;;;;;;;;;;137488;1274;22174;-82
2023/03/27 00:03:54;;;;;;;;;;;;;;;;;;137482;1274;22201;-84
2023/03/27 00:06:55;;;;;;;;;;;;;;;;;;137501;1274;22180;-84
2023/03/27 00:09:57;;;;;;;;;;;;;;;;;;137516;1274;22205;-83
2023/03/27 00:12:58;;;;;;;;;;;;;;;;;;137496;1274;22242;-83
2023/03/27 00:15:59;;;;;;;;;;;;;;;;;;137492;1275;22278;-83
2023/03/27 00:19:00;;;;;;;;;;;;;;;;;;137515;1274;22222;-83
2023/03/27 00:22:01;;;;;;;;;;;;;;;;;;137472;1274;22401;-83
2023/03/27 00:25:02;;;;;;;;;;;;;;;;;;137552;1274;22174;-83
2023/03/27 00:28:03;;;;;;;;;;;;;;;;;;137546;1275;22165;-83
2023/03/27 00:31:05;;;;;;;;;;;;;;;;;;137525;1274;22374;-83
2023/03/27 00:34:06;;;;;;;;;;;;;;;;;;137512;1274;22296;-83
2023/03/27 00:37:07;;;;;;;;;;;;;;;;;;137488;1274;22663;-83
2023/03/27 00:40:12;;;;;;;;;;;;;;;;;;137477;1274;22177;-83
2023/03/27 00:43:13;;;;;;;;;;;;;;;;;;137469;1264;22223;-83
2023/03/27 00:46:14;;;;;;;;;;;;;;;;;;137502;1274;22320;-84
2023/03/27 00:49:15;;;;;;;;;;;;;;;;;;137505;1274;22675;-83
2023/03/27 00:52:17;;;;;;;;;;;;;;;;;;137522;1270;22490;-83
2023/03/27 00:55:18;;;;;;;;;;;;;;;;;;137467;1274;22792;-83
2023/03/27 00:58:19;;;;;;;;;;;;;;;;;;137523;1274;22303;-83
2023/03/27 01:01:20;;;;;;;;;;;;;;;;;;137505;1260;22216;-85
2023/03/27 01:04:21;;;;;;;;;;;;;;;;;;137522;1274;22330;-80
2023/03/27 01:07:24;;;;;;;;;;;;;;;;;;137521;1274;22750;-84
2023/03/27 01:10:25;;;;;;;;;;;;;;;;;;137524;1274;22666;-83
2023/03/27 01:13:26;;;;;;;;;;;;;;;;;;137531;1274;22174;-83
2023/03/27 01:16:27;;;;;;;;;;;;;;;;;;137515;1275;22823;-84
2023/03/27 01:19:28;;;;;;;;;;;;;;;;;;137537;1274;22215;-84
2023/03/27 01:22:29;;;;;;;;;;;;;;;;;;137504;1274;22357;-84
2023/03/27 01:25:30;;;;;;;;;;;;;;;;;;137530;1274;22757;-84
2023/03/27 01:28:31;;;;;;;;;;;;;;;;;;137516;1274;22288;-84
2023/03/27 01:31:32;;;;;;;;;;;;;;;;;;137543;1274;22165;-84
2023/03/27 01:34:33;;;;;;;;;;;;;;;;;;137521;1270;22185;-84
2023/03/27 01:37:34;;;;;;;;;;;;;;;;;;137531;1274;22317;-84
2023/03/27 01:40:36;;;;;;;;;;;;;;;;;;137541;1274;22273;-83
2023/03/27 01:43:38;;;;;;;;;;;;;;;;;;137539;1274;22290;-84
2023/03/27 01:46:40;;;;;;;;;;;;;;;;;;137514;1275;22270;-84
2023/03/27 01:49:41;;;;;;;;;;;;;;;;;;137519;1274;22282;-84
2023/03/27 01:52:42;;;;;;;;;;;;;;;;;;137556;1274;22362;-84
2023/03/27 01:55:43;;;;;;;;;;;;;;;;;;137480;1274;22294;-83
2023/03/27 01:58:45;;;;;;;;;;;;;;;;;;137506;1274;22181;-84
2023/03/27 02:01:46;;;;;;;;;;;;;;;;;;137517;1274;22666;-84
2023/03/27 02:04:47;;;;;;;;;;;;;;;;;;137512;1274;22208;-85
2023/03/27 02:07:50;;;;;;;;;;;;;;;;;;137557;1274;22218;-83
2023/03/27 02:10:51;;;;;;;;;;;;;;;;;;137493;1274;22316;-84
2023/03/27 02:13:52;;;;;;;;;;;;;;;;;;137521;1274;22205;-83
2023/03/27 02:16:53;;;;;;;;;;;;;;;;;;137507;1274;22275;-83
2023/03/27 02:19:55;;;;;;;;;;;;;;;;;;137529;1274;22199;-84
2023/03/27 02:22:59;;;;;;;;;;;;;;;;;;137529;1274;22382;-81
2023/03/27 02:26:00;;;;;;;;;;;;;;;;;;137526;1274;22260;-84
2023/03/27 02:29:01;;;;;;;;;;;;;;;;;;137565;1274;22182;-84
2023/03/27 02:32:02;;;;;;;;;;;;;;;;;;137460;1274;22290;-83
2023/03/27 02:35:04;;;;;;;;;;;;;;;;;;137527;1274;22297;-83
2023/03/27 02:38:05;;;;;;;;;;;;;;;;;;137399;1274;22211;-83
2023/03/27 02:41:07;;;;;;;;;;;;;;;;;;137506;1274;22307;-83
2023/03/27 02:44:08;;;;;;;;;;;;;;;;;;137488;1274;22335;-83
2023/03/27 02:47:09;;;;;;;;;;;;;;;;;;137512;1274;22304;-83
2023/03/27 02:50:10;;;;;;;;;;;;;;;;;;137525;1274;22229;-83
2023/03/27 02:53:11;;;;;;;;;;;;;;;;;;137501;1274;22397;-83
2023/03/27 02:56:15;;;;;;;;;;;;;;;;;;137507;1274;22257;-84
2023/03/27 02:59:16;;;;;;;;;;;;;;;;;;137494;1274;22290;-84
2023/03/27 03:02:18;;;;;;;;;;;;;;;;;;137493;1274;22672;-84
2023/03/27 03:05:19;;;;;;;;;;;;;;;;;;137496;1274;22361;-84
2023/03/27 03:08:21;;;;;;;;;;;;;;;;;;137496;1274;22218;-84
2023/03/27 03:11:22;;;;;;;;;;;;;;;;;;137495;1274;22205;-84
2023/03/27 03:14:23;;;;;;;;;;;;;;;;;;137463;1274;22292;-83
2023/03/27 03:17:24;;;;;;;;;;;;;;;;;;137529;1274;22321;-84
2023/03/27 03:20:28;;;;;;;;;;;;;;;;;;137499;1274;22864;-84
2023/03/27 03:23:29;;;;;;;;;;;;;;;;;;137490;1274;22273;-83
2023/03/27 03:26:31;;;;;;;;;;;;;;;;;;137476;1274;22338;-84
2023/03/27 03:29:35;;;;;;;;;;;;;;;;;;137465;1274;22194;-83
2023/03/27 03:32:39;;;;;;;;;;;;;;;;;;137484;1267;22699;-83
2023/03/27 03:35:41;;;;;;;;;;;;;;;;;;137513;1274;22789;-83
2023/03/27 03:38:43;;;;;;;;;;;;;;;;;;137307;1274;186267;-84
2023/03/27 03:41:44;;;;;;;;;;;;;;;;;;137498;1274;22251;-84
2023/03/27 03:44:45;;;;;;;;;;;;;;;;;;137479;1274;22287;-84
2023/03/27 03:47:46;;;;;;;;;;;;;;;;;;137486;1274;22577;-83
2023/03/27 03:50:47;;;;;;;;;;;;;;;;;;137549;1274;22476;-83
2023/03/27 03:53:48;;;;;;;;;;;;;;;;;;137548;1274;22319;-84
2023/03/27 03:56:52;;;;;;;;;;;;;;;;;;137533;1274;22297;-84
2023/03/27 03:59:53;;;;;;;;;;;;;;;;;;137498;1274;22315;-84
2023/03/27 04:02:55;;;;;;;;;;;;;;;;;;137492;1267;22230;-84
2023/03/27 04:05:59;;;;;;;;;;;;;;;;;;137499;1274;22278;-84
2023/03/27 04:09:00;;;;;;;;;;;;;;;;;;137458;1274;22284;-84
2023/03/27 04:12:01;;;;;;;;;;;;;;;;;;137429;1274;22198;-83
2023/03/27 04:15:03;;;;;;;;;;;;;;;;;;137507;1263;22131;-84
2023/03/27 04:18:04;;;;;;;;;;;;;;;;;;137470;1274;22626;-83
2023/03/27 04:21:05;;;;;;;;;;;;;;;;;;137444;1274;22363;-84
2023/03/27 04:24:07;;;;;;;;;;;;;;;;;;137519;1274;22459;-84
2023/03/27 04:27:08;;;;;;;;;;;;;;;;;;137260;1274;22378;-84
2023/03/27 04:30:09;;;;;;;;;;;;;;;;;;137450;1274;22256;-81
2023/03/27 04:33:17;;;;;;;;;;;;;;;;;;137478;1267;22195;-83
2023/03/27 04:36:18;;;;;;;;;;;;;;;;;;137501;1274;23040;-85
2023/03/27 04:39:19;;;;;;;;;;;;;;;;;;137463;1274;22920;-84
2023/03/27 04:42:22;;;;;;;;;;;;;;;;;;137450;1274;22640;-84
2023/03/27 04:45:24;;;;;;;;;;;;;;;;;;137499;1262;22212;-84
2023/03/27 04:48:25;;;;;;;;;;;;;;;;;;137503;1274;22265;-85
2023/03/27 04:51:31;;;;;;;;;;;;;;;;;;137458;1274;22805;-82
2023/03/27 04:54:32;;;;;;;;;;;;;;;;;;137480;1274;22184;-84
2023/03/27 04:57:33;;;;;;;;;;;;;;;;;;137441;1274;22299;-82
2023/03/27 05:00:35;;;;;;;;;;;;;;;;;;137417;1274;22273;-84
2023/03/27 05:03:37;;;;;;;;;;;;;;;;;;137434;1274;22269;-84
2023/03/27 05:06:39;;;;;;;;;;;;;;;;;;137432;1274;22201;-83
2023/03/27 05:09:40;;;;;;;;;;;;;;;;;;137441;1274;22281;-82
2023/03/27 05:12:41;;;;;;;;;;;;;;;;;;137482;1274;22272;-82
2023/03/27 05:15:42;;;;;;;;;;;;;;;;;;137513;1274;22131;-83
2023/03/27 05:18:44;;;;;;;;;;;;;;;;;;137467;1274;22140;-82
2023/03/27 05:21:45;;;;;;;;;;;;;;;;;;137465;1274;22351;-83
2023/03/27 05:24:46;;;;;;;;;;;;;;;;;;137486;1270;22871;-84
2023/03/27 05:27:47;;;;;;;;;;;;;;;;;;137420;1262;22156;-83
2023/03/27 05:30:49;;;;;;;;;;;;;;;;;;137432;1274;22189;-83
2023/03/27 05:33:51;;;;;;;;;;;;;;;;;;137408;1274;22541;-81
2023/03/27 05:36:52;;;;;;;;;;;;;;;;;;137421;1274;22316;-82
2023/03/27 05:39:53;;;;;;;;;;;;;;;;;;137481;1274;22265;-84
2023/03/27 05:42:54;;;;;;;;;;;;;;;;;;137440;1274;22176;-84
2023/03/27 05:45:58;;;;;;;;;;;;;;;;;;137441;1274;22262;-84
2023/03/27 05:48:59;;;;;;;;;;;;;;;;;;137405;1274;22252;-83
2023/03/27 05:52:00;;;;;;;;;;;;;;;;;;137435;1274;22355;-82
2023/03/27 05:55:01;;;;;;;;;;;;;;;;;;137481;1274;22389;-83
2023/03/27 05:58:02;;;;;;;;;;;;;;;;;;137442;1274;22988;-83
2023/03/27 06:01:04;;;;;;;;;;;;;;;;;;137459;1274;22215;-82
2023/03/27 06:04:07;;;;;;;;;;;;;;;;;;137483;1274;22269;-79
2023/03/27 06:07:09;;;;;;;;;;;;;;;;;;137454;1274;22196;-81
2023/03/27 06:10:10;;;;;;;;;;;;;;;;;;137473;1274;22270;-81
2023/03/27 06:13:11;;;;;;;;;;;;;;;;;;137444;1274;22288;-82
2023/03/27 06:16:13;;;;;;;;;;;;;;;;;;137438;1274;22273;-82
2023/03/27 06:19:16;;;;;;;;;;;;;;;;;;137460;1274;22279;-83
2023/03/27 06:22:17;;;;;;;;;;;;;;;;;;137468;1274;22404;-81
2023/03/27 06:25:19;;;;;;;;;;;;;;;;;;137467;1274;22281;-84
2023/03/27 06:28:20;;;;;;;;;;;;;;;;;;137450;1274;22273;-84
2023/03/27 06:31:21;;;;;;;;;;;;;;;;;;137439;1274;22165;-84
2023/03/27 06:34:22;;;;;;;;;;;;;;;;;;137465;1274;22344;-84
2023/03/27 06:37:24;;;;;;;;;;;;;;;;;;137437;1264;22198;-83
2023/03/27 06:40:26;;;;;;;;;;;;;;;;;;137438;1274;22707;-83
2023/03/27 06:43:27;;;;;;;;;;;;;;;;;;137433;1274;22877;-82
2023/03/27 06:46:31;;;;;;;;;;;;;;;;;;137426;1274;22316;-83
2023/03/27 06:49:32;;;;;;;;;;;;;;;;;;137466;1274;22175;-83
2023/03/27 06:52:33;;;;;;;;;;;;;;;;;;137411;1274;23074;-85
2023/03/27 06:55:34;;;;;;;;;;;;;;;;;;137433;1274;22534;-83
2023/03/27 06:58:36;;;;;;;;;;;;;;;;;;137437;1274;22947;-81
2023/03/27 07:01:37;;;;;;;;;;;;;;;;;;137433;1274;22404;-83
2023/03/27 07:04:38;;;;;;;;;;;;;;;;;;137441;1274;22676;-83
2023/03/27 07:07:39;;;;;;;;;;;;;;;;;;137459;1274;22925;-83
2023/03/27 07:10:40;;;;;;;;;;;;;;;;;;137468;1274;22168;-82
2023/03/27 07:13:41;;;;;;;;;;;;;;;;;;137489;1274;22605;-84
2023/03/27 07:16:42;;;;;;;;;;;;;;;;;;137499;1274;22216;-79
2023/03/27 07:19:46;;;;;;;;;;;;;;;;;;137459;1274;22308;-82
2023/03/27 07:22:47;;;;;;;;;;;;;;;;;;137466;1274;22457;-82
2023/03/27 07:25:50;;;;;;;;;;;;;;;;;;137451;1274;22419;-82
2023/03/27 07:28:51;;;;;;;;;;;;;;;;;;137455;1274;22223;-83
2023/03/27 07:31:52;;;;;;;;;;;;;;;;;;137265;1274;23078;-81
2023/03/27 07:34:53;;;;;;;;;;;;;;;;;;137196;1269;22392;-81
2023/03/27 07:37:54;;;;;;;;;;;;;;;;;;137458;1274;22375;-81
2023/03/27 07:40:56;;;;;;;;;;;;;;;;;;137463;1274;22394;-81
2023/03/27 07:43:57;;;;;;;;;;;;;;;;;;137472;1274;22764;-81
2023/03/27 07:46:59;;;;;;;;;;;;;;;;;;137412;1274;22263;-81
2023/03/27 07:50:00;;;;;;;;;;;;;;;;;;137370;1274;22258;-81
2023/03/27 07:53:01;;;;;;;;;;;;;;;;;;137423;1274;22732;-82
2023/03/27 07:56:02;;;;;;;;;;;;;;;;;;137494;1274;22179;-83
2023/03/27 07:59:03;;;;;;;;;;;;;;;;;;137490;1274;22289;-80
2023/03/27 08:02:04;;;;;;;;;;;;;;;;;;137500;1274;22283;-85
2023/03/27 08:05:06;;;;;;;;;;;;;;;;;;137469;1274;22289;-84
2023/03/27 08:08:07;;;;;;;;;;;;;;;;;;137492;1262;22197;-85
2023/03/27 08:11:08;;;;;;;;;;;;;;;;;;137504;1274;22731;-86
2023/03/27 08:14:09;;;;;;;;;;;;;;;;;;137465;1274;22645;-82
2023/03/27 08:17:11;;;;;;;;;;;;;;;;;;137451;1274;22287;-82
2023/03/27 08:20:14;;;;;;;;;;;;;;;;;;137485;1274;22267;-81
2023/03/27 08:23:15;;;;;;;;;;;;;;;;;;137437;1274;22353;-82
2023/03/27 08:26:16;;;;;;;;;;;;;;;;;;137458;1274;22195;-81
2023/03/27 08:29:17;;;;;;;;;;;;;;;;;;137424;1274;22244;-81
2023/03/27 08:32:18;;;;;;;;;;;;;;;;;;137449;1274;22282;-81
2023/03/27 08:35:20;;;;;;;;;;;;;;;;;;137524;1274;22272;-80
2023/03/27 08:38:22;;;;;;;;;;;;;;;;;;137505;1274;22165;-80
2023/03/27 08:41:23;;;;;;;;;;;;;;;;;;137448;1274;22308;-81
2023/03/27 08:44:24;;;;;;;;;;;;;;;;;;137437;1274;22705;-81
2023/03/27 08:47:25;;;;;;;;;;;;;;;;;;137429;1274;22193;-81
2023/03/27 08:50:26;;;;;;;;;;;;;;;;;;137481;1274;22396;-81
2023/03/27 08:53:27;;;;;;;;;;;;;;;;;;137473;1274;22191;-81
2023/03/27 08:56:28;;;;;;;;;;;;;;;;;;137453;1274;22567;-83
2023/03/27 08:59:30;;;;;;;;;;;;;;;;;;137421;1274;22726;-81
2023/03/27 09:02:32;;;;;;;;;;;;;;;;;;137545;1274;22252;-81
2023/03/27 09:05:33;;;;;;;;;;;;;;;;;;137457;1274;22727;-79
2023/03/27 09:08:34;;;;;;;;;;;;;;;;;;137476;1274;22292;-81
2023/03/27 09:11:35;;;;;;;;;;;;;;;;;;137484;1274;22246;-82
2023/03/27 09:14:37;;;;;;;;;;;;;;;;;;137461;1274;22248;-83
2023/03/27 09:17:38;;;;;;;;;;;;;;;;;;137476;1274;22210;-83
2023/03/27 09:20:39;;;;;;;;;;;;;;;;;;137484;1262;22729;-84
2023/03/27 09:23:40;;;;;;;;;;;;;;;;;;137499;1274;22254;-83
2023/03/27 09:26:42;;;;;;;;;;;;;;;;;;137514;1274;22263;-84
2023/03/27 09:29:43;;;;;;;;;;;;;;;;;;137510;1274;22658;-85
2023/03/27 09:32:45;;;;;;;;;;;;;;;;;;137492;1274;22273;-81
2023/03/27 09:35:46;;;;;;;;;;;;;;;;;;137483;1269;22286;-82
2023/03/27 09:38:49;;;;;;;;;;;;;;;;;;137508;1274;22283;-84
2023/03/27 09:41:50;;;;;;;;;;;;;;;;;;137490;1272;22202;-81
2023/03/27 09:44:51;;;;;;;;;;;;;;;;;;137482;1274;22296;-82
2023/03/27 09:47:52;;;;;;;;;;;;;;;;;;137482;1274;22297;-81
2023/03/27 09:50:53;;;;;;;;;;;;;;;;;;137455;1274;22392;-83
2023/03/27 09:53:54;;;;;;;;;;;;;;;;;;137455;1274;22256;-81
2023/03/27 09:56:56;;;;;;;;;;;;;;;;;;137469;1274;22358;-82
2023/03/27 09:59:57;;;;;;;;;;;;;;;;;;137454;1274;22156;-82
2023/03/27 10:02:58;;;;;;;;;;;;;;;;;;137454;1274;22213;-82
2023/03/27 10:06:00;;;;;;;;;;;;;;;;;;137481;1274;22217;-81
2023/03/27 10:09:06;;;;;;;;;;;;;;;;;;137467;1274;22269;-81
2023/03/27 10:12:07;;;;;;;;;;;;;;;;;;137486;1274;22278;-82
2023/03/27 10:15:08;;;;;;;;;;;;;;;;;;137475;1274;22757;-83
2023/03/27 10:18:09;;;;;;;;;;;;;;;;;;137478;1274;22307;-83
2023/03/27 10:21:10;;;;;;;;;;;;;;;;;;137434;1274;22367;-82
2023/03/27 10:24:11;;;;;;;;;;;;;;;;;;137462;1274;22246;-82
2023/03/27 10:27:12;;;;;;;;;;;;;;;;;;137475;1274;22280;-81
2023/03/27 10:30:14;;;;;;;;;;;;;;;;;;137493;1274;22267;-81
2023/03/27 10:33:16;;;;;;;;;;;;;;;;;;137498;1274;22263;-81
2023/03/27 10:36:17;;;;;;;;;;;;;;;;;;137469;1274;22777;-81
2023/03/27 10:39:19;;;;;;;;;;;;;;;;;;137486;1274;22310;-82
2023/03/27 10:42:21;;;;;;;;;;;;;;;;;;137498;1274;22317;-82
2023/03/27 10:45:22;;;;;;;;;;;;;;;;;;137468;1262;22180;-82
2023/03/27 10:48:24;;;;;;;;;;;;;;;;;;137502;1274;22183;-83
2023/03/27 10:51:25;;;;;;;;;;;;;;;;;;137429;1274;22365;-79
2023/03/27 10:54:26;;;;;;;;;;;;;;;;;;137479;1274;22286;-81
2023/03/27 10:57:29;;;;;;;;;;;;;;;;;;137482;1274;22275;-81
2023/03/27 11:00:31;;;;;;;;;;;;;;;;;;137436;1274;22181;-80
2023/03/27 11:03:33;;;;;;;;;;;;;;;;;;137435;1274;22315;-79
2023/03/27 11:06:34;;;;;;;;;;;;;;;;;;137477;1274;22165;-81
2023/03/27 11:09:35;;;;;;;;;;;;;;;;;;137490;1274;22722;-79
2023/03/27 11:12:37;;;;;;;;;;;;;;;;;;137483;1274;22200;-81
2023/03/27 11:15:40;;;;;;;;;;;;;;;;;;137519;1274;22293;-81
2023/03/27 11:18:42;;;;;;;;;;;;;;;;;;137557;1274;22269;-82
2023/03/27 11:21:43;;;;;;;;;;;;;;;;;;137527;1274;22360;-79
2023/03/27 11:24:46;;;;;;;;;;;;;;;;;;137546;1259;22320;-81
2023/03/27 11:27:47;;;;;;;;;;;;;;;;;;137454;1274;22255;-82
2023/03/27 11:30:48;;;;;;;;;;;;;;;;;;137470;1274;22184;-80
2023/03/27 11:33:50;;;;;;;;;;;;;;;;;;137511;1274;22201;-79
2023/03/27 11:36:51;;;;;;;;;;;;;;;;;;137480;1274;22631;-78
2023/03/27 11:39:52;;;;;;;;;;;;;;;;;;137478;1262;22648;-79
2023/03/27 11:42:54;;;;;;;;;;;;;;;;;;137496;1274;22190;-80
2023/03/27 11:45:55;;;;;;;;;;;;;;;;;;137438;1274;22647;-80
2023/03/27 11:48:56;;;;;;;;;;;;;;;;;;137446;1268;22195;-80
2023/03/27 11:51:57;;;;;;;;;;;;;;;;;;137450;1274;22364;-79
2023/03/27 11:55:05;;;;;;;;;;;;;;;;;;137473;1274;22260;-80
2023/03/27 11:58:06;;;;;;;;;;;;;;;;;;137407;1274;22337;-79
2023/03/27 12:01:08;;;;;;;;;;;;;;;;;;137426;1274;22250;-79
2023/03/27 12:04:10;;;;;;;;;;;;;;;;;;137425;1274;22290;-78
2023/03/27 12:07:11;;;;;;;;;;;;;;;;;;137322;1274;22357;-80
2023/03/27 12:10:12;;;;;;;;;;;;;;;;;;137379;1274;22168;-79
2023/03/27 12:13:13;;;;;;;;;;;;;;;;;;137365;1274;22295;-80
2023/03/27 12:16:14;;;;;;;;;;;;;;;;;;137383;1274;22222;-79
2023/03/27 12:19:18;;;;;;;;;;;;;;;;;;137339;1274;22189;-80
2023/03/27 12:22:19;;;;;;;;;;;;;;;;;;137341;1274;22352;-78
2023/03/27 12:25:20;;;;;;;;;;;;;;;;;;137327;1274;22291;-79
2023/03/27 12:28:22;;;;;;;;;;;;;;;;;;137373;1269;22282;-82
2023/03/27 12:31:23;;;;;;;;;;;;;;;;;;137373;1274;22154;-82
2023/03/27 12:34:24;;;;;;;;;;;;;;;;;;137381;1274;22249;-83
2023/03/27 12:37:26;;;;;;;;;;;;;;;;;;137381;1274;22132;-82
2023/03/27 12:40:27;;;;;;;;;;;;;;;;;;137402;1274;22579;-81
2023/03/27 12:43:32;;;;;;;;;;;;;;;;;;137396;1274;22901;-78
2023/03/27 12:46:33;;;;;;;;;;;;;;;;;;137448;1274;22266;-80
2023/03/27 12:49:34;;;;;;;;;;;;;;;;;;137443;1274;22258;-81
2023/03/27 12:52:36;;;;;;;;;;;;;;;;;;137415;1256;22392;-81
2023/03/27 12:55:37;;;;;;;;;;;;;;;;;;137413;1274;22167;-81
2023/03/27 12:58:38;;;;;;;;;;;;;;;;;;137388;1274;22200;-79
2023/03/27 13:01:40;;;;;;;;;;;;;;;;;;137407;1274;22788;-80
2023/03/27 13:04:41;;;;;;;;;;;;;;;;;;137436;1256;22412;-80
2023/03/27 13:07:42;;;;;;;;;;;;;;;;;;137419;1274;22250;-80
2023/03/27 13:10:44;;;;;;;;;;;;;;;;;;137358;1274;22250;-81
2023/03/27 13:13:45;;;;;;;;;;;;;;;;;;137390;1274;22277;-81
2023/03/27 13:16:53;;;;;;;;;;;;;;;;;;137440;1274;22320;-82
2023/03/27 13:19:56;;;;;;;;;;;;;;;;;;137408;1274;22119;-81
2023/03/27 13:22:57;;;;;;;;;;;;;;;;;;137425;1274;22425;-80
2023/03/27 13:25:59;;;;;;;;;;;;;;;;;;137399;1274;22172;-79
2023/03/27 13:29:00;;;;;;;;;;;;;;;;;;137408;1274;22266;-81
2023/03/27 13:32:01;;;;;;;;;;;;;;;;;;137377;1274;22198;-80
2023/03/27 13:35:03;;;;;;;;;;;;;;;;;;137432;1262;22179;-82
2023/03/27 13:38:04;;;;;;;;;;;;;;;;;;137435;1274;22196;-80
2023/03/27 13:41:05;;;;;;;;;;;;;;;;;;137435;1274;22268;-80
2023/03/27 13:44:07;;;;;;;;;;;;;;;;;;137429;1272;22649;-82
2023/03/27 13:47:08;;;;;;;;;;;;;;;;;;137456;1274;22275;-81
2023/03/27 13:50:09;;;;;;;;;;;;;;;;;;137399;1274;22622;-81
2023/03/27 13:53:10;;;;;;;;;;;;;;;;;;137446;1274;22354;-82
2023/03/27 13:56:12;;;;;;;;;;;;;;;;;;137470;1274;22320;-81
2023/03/27 13:59:13;;;;;;;;;;;;;;;;;;137423;1274;22294;-82
2023/03/27 14:02:14;;;;;;;;;;;;;;;;;;137406;1274;22444;-81
2023/03/27 14:05:16;;;;;;;;;;;;;;;;;;137484;1263;22272;-81
2023/03/27 14:08:17;;;;;;;;;;;;;;;;;;137473;1274;22354;-80
2023/03/27 14:11:21;;;;;;;;;;;;;;;;;;137484;1274;22277;-81
2023/03/27 14:14:22;;;;;;;;;;;;;;;;;;137470;1274;22285;-81
2023/03/27 14:17:23;;;;;;;;;;;;;;;;;;137439;1274;22392;-81
2023/03/27 14:20:24;;;;;;;;;;;;;;;;;;137437;1266;22864;-81
2023/03/27 14:23:27;;;;;;;;;;;;;;;;;;137440;1274;22164;-81
2023/03/27 14:26:28;;;;;;;;;;;;;;;;;;137434;1274;22196;-82
2023/03/27 14:29:31;;;;;;;;;;;;;;;;;;137428;1274;22221;-81
2023/03/27 14:32:32;;;;;;;;;;;;;;;;;;137469;1274;22260;-82
2023/03/27 14:35:34;;;;;;;;;;;;;;;;;;137362;1274;22617;-82
2023/03/27 14:38:35;;;;;;;;;;;;;;;;;;137474;1274;22194;-80
2023/03/27 14:41:36;;;;;;;;;;;;;;;;;;137494;1274;22690;-83
2023/03/27 14:44:37;;;;;;;;;;;;;;;;;;137367;1268;22343;-82
2023/03/27 14:47:38;;;;;;;;;;;;;;;;;;137528;1275;22258;-82
2023/03/27 14:50:40;;;;;;;;;;;;;;;;;;137439;1269;22837;-82
2023/03/27 14:53:43;;;;;;;;;;;;;;;;;;137511;1274;22862;-82
2023/03/27 14:56:46;;;;;;;;;;;;;;;;;;137507;1274;22264;-84
2023/03/27 14:59:47;;;;;;;;;;;;;;;;;;137435;1272;22360;-80
2023/03/27 15:02:48;;;;;;;;;;;;;;;;;;137423;1274;22253;-81
2023/03/27 15:05:49;;;;;;;;;;;;;;;;;;137402;1274;22262;-81
2023/03/27 15:08:50;;;;;;;;;;;;;;;;;;137426;1274;22727;-82
2023/03/27 15:11:51;;;;;;;;;;;;;;;;;;137414;1274;22268;-82
2023/03/27 15:14:54;;;;;;;;;;;;;;;;;;137448;1274;22349;-81
2023/03/27 15:17:58;;;;;;;;;;;;;;;;;;137504;1274;22214;-83
2023/03/27 15:20:59;;;;;;;;;;;;;;;;;;137467;1275;22377;-83
2023/03/27 15:24:00;;;;;;;;;;;;;;;;;;137403;1274;22844;-77
2023/03/27 15:27:02;;;;;;;;;;;;;;;;;;137483;1275;22155;-82
2023/03/27 15:30:03;;;;;;;;;;;;;;;;;;137522;1274;22324;-81
2023/03/27 15:33:04;;;;;;;;;;;;;;;;;;137529;1275;22299;-82
2023/03/27 15:36:05;;;;;;;;;;;;;;;;;;137501;1274;22394;-83
2023/03/27 15:39:07;;;;;;;;;;;;;;;;;;137366;1274;187549;-84
2023/03/27 15:42:08;;;;;;;;;;;;;;;;;;137485;1274;22209;-82
2023/03/27 15:45:09;;;;;;;;;;;;;;;;;;137474;1274;22605;-82
2023/03/27 15:48:10;;;;;;;;;;;;;;;;;;137488;1275;22620;-83
2023/03/27 15:51:11;;;;;;;;;;;;;;;;;;137478;1274;22421;-82
2023/03/27 15:54:12;;;;;;;;;;;;;;;;;;137490;1274;22655;-83
2023/03/27 15:57:16;;;;;;;;;;;;;;;;;;137511;1274;22299;-83
2023/03/27 16:00:17;;;;;;;;;;;;;;;;;;137519;1274;22297;-84
2023/03/27 16:03:18;;;;;;;;;;;;;;;;;;137529;1274;22190;-82
2023/03/27 16:06:19;;;;;;;;;;;;;;;;;;137536;1274;22638;-82
2023/03/27 16:09:20;;;;;;;;;;;;;;;;;;137470;1274;22710;-83
2023/03/27 16:12:24;;;;;;;;;;;;;;;;;;137514;1274;22180;-83
2023/03/27 16:15:26;;;;;;;;;;;;;;;;;;137536;1270;22222;-82
2023/03/27 16:18:27;;;;;;;;;;;;;;;;;;137528;1274;22755;-84
2023/03/27 16:21:28;;;;;;;;;;;;;;;;;;137525;1274;22809;-85
2023/03/27 16:24:29;;;;;;;;;;;;;;;;;;137556;1267;22205;-82
2023/03/27 16:27:30;;;;;;;;;;;;;;;;;;137557;1271;22230;-82
2023/03/27 16:30:31;;;;;;;;;;;;;;;;;;137483;1274;22262;-82
2023/03/27 16:33:32;;;;;;;;;;;;;;;;;;137486;1274;22156;-82
2023/03/27 16:36:34;;;;;;;;;;;;;;;;;;137452;1274;22275;-83
2023/03/27 16:39:35;;;;;;;;;;;;;;;;;;137475;1274;22197;-83
2023/03/27 16:42:36;;;;;;;;;;;;;;;;;;137513;1274;22192;-83
2023/03/27 16:45:37;;;;;;;;;;;;;;;;;;137508;1274;22139;-83
2023/03/27 16:48:38;;;;;;;;;;;;;;;;;;137492;1274;22264;-82
2023/03/27 16:51:39;;;;;;;;;;;;;;;;;;137473;1274;22834;-82
2023/03/27 16:54:41;;;;;;;;;;;;;;;;;;137490;1274;22334;-83
2023/03/27 16:57:42;;;;;;;;;;;;;;;;;;137477;1274;22217;-83
2023/03/27 17:00:43;;;;;;;;;;;;;;;;;;137479;1271;22207;-82
2023/03/27 17:03:44;;;;;;;;;;;;;;;;;;137593;1274;22181;-84
2023/03/27 17:06:46;;;;;;;;;;;;;;;;;;137643;1274;22295;-86
2023/03/27 17:09:47;;;;;;;;;;;;;;;;;;137595;1274;22287;-85
2023/03/27 17:12:59;;;;;;;;;;;;;;;;;;;;;
2023/03/27 17:16:00;;;;;;;;;;;;;;;;;;137573;1274;22291;-86
2023/03/27 17:19:01;;;;;;;;;;;;;;;;;;137551;1274;22191;-85
2023/03/27 17:22:02;;;;;;;;;;;;;;;;;;137484;1274;22346;-85
2023/03/27 17:25:04;;;;;;;;;;;;;;;;;;137544;1274;22230;-86
2023/03/27 17:28:06;;;;;;;;;;;;;;;;;;137546;1274;22221;-86
2023/03/27 17:31:07;;;;;;;;;;;;;;;;;;137507;1274;22699;-85
2023/03/27 17:34:08;;;;;;;;;;;;;;;;;;137488;1274;22144;-84
2023/03/27 17:37:11;;;;;;;;;;;;;;;;;;137478;1274;22164;-86
2023/03/27 17:40:13;;;;;;;;;;;;;;;;;;137462;1274;22262;-86
2023/03/27 17:43:14;;;;;;;;;;;;;;;;;;137504;1274;22269;-86
2023/03/27 17:46:18;;;;;;;;;;;;;;;;;;137505;1274;22852;-86
2023/03/27 17:49:19;;;;;;;;;;;;;;;;;;137501;1274;22286;-85
2023/03/27 17:52:22;;;;;;;;;;;;;;;;;;137481;1274;22364;-86
2023/03/27 17:55:23;;;;;;;;;;;;;;;;;;137494;1274;22257;-86
2023/03/27 17:58:25;;;;;;;;;;;;;;;;;;137523;1274;22272;-85
2023/03/27 18:01:26;;;;;;;;;;;;;;;;;;137473;1274;22196;-85
2023/03/27 18:04:27;;;;;;;;;;;;;;;;;;137516;1274;22221;-84
2023/03/27 18:07:29;;;;;;;;;;;;;;;;;;137471;1274;22174;-85
2023/03/27 18:10:30;;;;;;;;;;;;;;;;;;137498;1274;22347;-85
2023/03/27 18:13:32;;;;;;;;;;;;;;;;;;137464;1274;22718;-85
2023/03/27 18:16:33;;;;;;;;;;;;;;;;;;137509;1274;22644;-86
2023/03/27 18:19:34;;;;;;;;;;;;;;;;;;137503;1274;22351;-87
2023/03/27 18:22:40;;;;;;;;;;;;;;;;;;137532;1274;22362;-86
2023/03/27 18:25:41;;;;;;;;;;;;;;;;;;137498;1274;22228;-87
2023/03/27 18:28:45;;;;;;;;;;;;;;;;;;137493;1274;22738;-84
2023/03/27 18:31:46;;;;;;;;;;;;;;;;;;137465;1274;22259;-85
2023/03/27 18:34:47;;;;;;;;;;;;;;;;;;137488;1274;22782;-84
2023/03/27 18:37:48;;;;;;;;;;;;;;;;;;137522;1274;22180;-85
2023/03/27 18:40:49;;;;;;;;;;;;;;;;;;137501;1274;22194;-86
2023/03/27 18:43:50;;;;;;;;;;;;;;;;;;137515;1274;22289;-84
2023/03/27 18:46:51;;;;;;;;;;;;;;;;;;137486;1274;22600;-86
2023/03/27 18:49:52;;;;;;;;;;;;;;;;;;137519;1274;22223;-85
2023/03/27 18:52:53;;;;;;;;;;;;;;;;;;137496;1274;22381;-85
2023/03/27 18:55:57;;;;;;;;;;;;;;;;;;137534;1274;22264;-86
2023/03/27 18:58:58;;;;;;;;;;;;;;;;;;137506;1272;22197;-86
2023/03/27 19:01:59;;;;;;;;;;;;;;;;;;137482;1274;22212;-85
2023/03/27 19:05:01;;;;;;;;;;;;;;;;;;137500;1274;22655;-85
2023/03/27 19:08:02;;;;;;;;;;;;;;;;;;137458;1274;22325;-85
2023/03/27 19:11:03;;;;;;;;;;;;;;;;;;137503;1274;22163;-85
2023/03/27 19:14:04;;;;;;;;;;;;;;;;;;137505;1274;22192;-85
2023/03/27 19:17:05;;;;;;;;;;;;;;;;;;137472;1274;22167;-86
2023/03/27 19:20:20;;;;;;;;;;;;;;;;;;137519;1274;22642;-86
2023/03/27 19:23:26;;;;;;;;;;;;;;;;;;137481;1274;22273;-86
2023/03/27 19:29:58;;;;;;;;;;;;;;;;;;137414;1274;22796;-85
2023/03/27 19:32:59;;;;;;;;;;;;;;;;;;137447;1274;22394;-84
2023/03/27 19:36:01;;;;;;;;;;;;;;;;;;137479;1274;22698;-85
2023/03/27 19:39:03;;;;;;;;;;;;;;;;;;137475;1274;22386;-84
2023/03/27 19:42:06;;;;;;;;;;;;;;;;;;137519;1274;22717;-85
2023/03/27 19:45:07;;;;;;;;;;;;;;;;;;137499;1274;22262;-85
2023/03/27 19:48:08;;;;;;;;;;;;;;;;;;137505;1274;22189;-85
2023/03/27 19:51:12;;;;;;;;;;;;;;;;;;137512;1274;22194;-85
2023/03/27 19:54:13;;;;;;;;;;;;;;;;;;137521;1274;22650;-85
2023/03/27 19:57:14;;;;;;;;;;;;;;;;;;137479;1274;22173;-86
2023/03/27 20:00:16;;;;;;;;;;;;;;;;;;137473;1274;22264;-85
2023/03/27 20:03:18;;;;;;;;;;;;;;;;;;137482;1274;22322;-85
2023/03/27 20:06:20;;;;;;;;;;;;;;;;;;137490;1274;22242;-83
2023/03/27 20:09:21;;;;;;;;;;;;;;;;;;137502;1274;22360;-85
2023/03/27 20:12:23;;;;;;;;;;;;;;;;;;137488;1274;22198;-85
2023/03/27 20:15:25;;;;;;;;;;;;;;;;;;137486;1274;22733;-85
2023/03/27 20:18:31;;;;;;;;;;;;;;;;;;137388;1274;22780;-84
2023/03/27 20:21:32;;;;;;;;;;;;;;;;;;137506;1274;22197;-85